Time;durP1;ratioP1;P1;durP2;ratioP2;P2;SDS_P1;SDS_P2;PMS_P1;PMS_P2;Temp;Humidity;BMP_temperature;BMP_pressure;BME280_temperature;BME280_humidity;BME280_pressure;Samples;Min_cycle;Max_cycle;Signal;HPM_P1;HPM_P2
2022/12/27 00:01:11;;;;;;;23.00;3.45;;;;;;;;;;5094497;28;20091;-77
2022/12/27 00:03:37;;;;;;;21.38;3.63;;;;;;;;;;5099152;28;20024;-78
2022/12/27 00:06:06;;;;;;;26.52;3.67;;;;;;;;;;5100631;28;20028;-78
2022/12/27 00:08:32;;;;;;;29.42;3.42;;;;;;;;;;5099551;28;20032;-77
2022/12/27 00:11:03;;;;;;;30.00;3.42;;;;;;;;;;5104545;28;20032;-77
2022/12/27 00:13:29;;;;;;;20.40;3.35;;;;;;;;;;5100485;28;20038;-77
2022/12/27 00:15:55;;;;;;;20.15;3.50;;;;;;;;;;5098930;28;20032;-77
2022/12/27 00:18:21;;;;;;;28.77;3.55;;;;;;;;;;5096942;28;20036;-77
2022/12/27 00:20:47;;;;;;;40.60;3.90;;;;;;;;;;5103518;28;20027;-76
2022/12/27 00:23:13;;;;;;;22.58;3.70;;;;;;;;;;5109696;28;20047;-77
2022/12/27 00:25:39;;;;;;;29.23;3.80;;;;;;;;;;5098535;28;20518;-77
2022/12/27 00:28:05;;;;;;;25.85;3.40;;;;;;;;;;5105918;28;20031;-76
2022/12/27 00:30:31;;;;;;;29.60;4.25;;;;;;;;;;5117496;28;20046;-77
2022/12/27 00:32:57;;;;;;;21.95;3.55;;;;;;;;;;5117982;28;20032;-77
2022/12/27 00:35:22;;;;;;;28.15;4.05;;;;;;;;;;5117479;28;20055;-76
2022/12/27 00:37:48;;;;;;;26.40;3.08;;;;;;;;;;5103392;28;20039;-77
2022/12/27 00:40:14;;;;;;;31.70;3.47;;;;;;;;;;5093131;28;20024;-76
2022/12/27 00:42:40;;;;;;;24.60;4.30;;;;;;;;;;5093117;28;20097;-77
2022/12/27 00:45:07;;;;;;;32.58;3.70;;;;;;;;;;5094186;28;20036;-77
2022/12/27 00:47:32;;;;;;;19.08;3.55;;;;;;;;;;5095794;28;20047;-77
2022/12/27 00:49:58;;;;;;;27.65;4.03;;;;;;;;;;5096054;28;20536;-77
2022/12/27 00:52:24;;;;;;;18.08;3.10;;;;;;;;;;5095659;28;20381;-77
2022/12/27 00:54:50;;;;;;;27.90;3.88;;;;;;;;;;5095414;28;20399;-76
2022/12/27 00:57:16;;;;;;;19.95;3.50;;;;;;;;;;5093512;28;20074;-76
2022/12/27 00:59:42;;;;;;;20.67;3.28;;;;;;;;;;5093796;28;20060;-77
2022/12/27 01:02:08;;;;;;;21.35;3.83;;;;;;;;;;5092862;28;20031;-77
2022/12/27 01:04:34;;;;;;;22.60;3.08;;;;;;;;;;5100863;28;20238;-77
2022/12/27 01:07:00;;;;;;;20.88;3.50;;;;;;;;;;5103497;28;20103;-77
2022/12/27 01:09:26;;;;;;;28.40;4.10;;;;;;;;;;5104888;28;20481;-77
2022/12/27 01:11:52;;;;;;;24.67;2.97;;;;;;;;;;5103378;28;20500;-77
2022/12/27 01:14:18;;;;;;;23.05;3.20;;;;;;;;;;5095539;28;20140;-77
2022/12/27 01:16:44;;;;;;;25.98;3.33;;;;;;;;;;5093655;28;20457;-76
2022/12/27 01:19:10;;;;;;;27.88;3.70;;;;;;;;;;5094470;28;20103;-77
2022/12/27 01:21:36;;;;;;;19.77;3.75;;;;;;;;;;5092908;28;20090;-76
2022/12/27 01:24:02;;;;;;;32.20;3.40;;;;;;;;;;5093036;28;20016;-77
2022/12/27 01:26:28;;;;;;;17.98;2.90;;;;;;;;;;5094510;28;20052;-77
2022/12/27 01:28:54;;;;;;;23.42;3.10;;;;;;;;;;5094999;28;20024;-78
2022/12/27 01:31:23;;;;;;;23.50;3.30;;;;;;;;;;5093310;28;20100;-77
2022/12/27 01:33:52;;;;;;;19.75;3.83;;;;;;;;;;5093522;28;20028;-77
2022/12/27 01:36:20;;;;;;;33.40;3.58;;;;;;;;;;5092195;28;20032;-77
2022/12/27 01:38:49;;;;;;;18.40;3.28;;;;;;;;;;5091272;28;20020;-77
2022/12/27 01:44:38;;;;;;;21.25;3.53;;;;;;;;;;5092775;28;20420;-78
2022/12/27 01:47:11;;;;;;;16.67;4.22;;;;;;;;;;5092013;28;20099;-77
2022/12/27 01:49:37;;;;;;;29.10;3.72;;;;;;;;;;5092385;28;20329;-77
2022/12/27 01:52:03;;;;;;;28.10;3.90;;;;;;;;;;5091774;28;20097;-76
2022/12/27 01:54:29;;;;;;;26.40;3.78;;;;;;;;;;5091484;28;20044;-76
2022/12/27 01:56:56;;;;;;;22.25;3.92;;;;;;;;;;5091256;28;20224;-76
2022/12/27 01:59:22;;;;;;;22.98;4.18;;;;;;;;;;5092045;28;20434;-76
2022/12/27 02:01:49;;;;;;;21.60;3.40;;;;;;;;;;5094175;28;20024;-78
2022/12/27 02:04:17;;;;;;;29.38;4.20;;;;;;;;;;5092974;28;20020;-77
2022/12/27 02:06:44;;;;;;;27.77;3.83;;;;;;;;;;5092566;28;20017;-77
2022/12/27 02:09:12;;;;;;;25.00;3.83;;;;;;;;;;5091865;28;20020;-76
2022/12/27 02:11:50;;;;;;;20.50;3.58;;;;;;;;;;5102467;28;20031;-77
2022/12/27 02:14:18;;;;;;;17.35;3.85;;;;;;;;;;5094398;28;20036;-77
2022/12/27 02:16:44;;;;;;;24.27;3.97;;;;;;;;;;5092273;28;20056;-77
2022/12/27 02:19:29;;;;;;;26.58;3.65;;;;;;;;;;5074320;28;20130;-77
2022/12/27 02:22:18;;;;;;;19.10;3.45;;;;;;;;;;5092119;28;20099;-76
2022/12/27 02:24:51;;;;;;;25.92;4.13;;;;;;;;;;5083621;28;20079;-76
2022/12/27 02:27:36;;;;;;;19.73;4.00;;;;;;;;;;5094862;28;20385;-78
2022/12/27 02:30:04;;;;;;;26.13;3.92;;;;;;;;;;5076589;28;20036;-77
2022/12/27 02:32:40;;;;;;;17.23;3.63;;;;;;;;;;5099041;28;20149;-77
2022/12/27 02:35:13;;;;;;;24.55;4.43;;;;;;;;;;5095406;28;20067;-77
2022/12/27 02:37:51;;;;;;;23.13;3.90;;;;;;;;;;5112498;28;20038;-77
2022/12/27 02:54:31;;;;;;;26.15;3.47;;;;;;;;;;5107866;28;20030;-76
2022/12/27 02:57:09;;;;;;;34.30;5.00;;;;;;;;;;5110991;28;20032;-77
2022/12/27 03:05:42;;;;;;;17.40;3.53;;;;;;;;;;5113973;28;20084;-76
2022/12/27 03:08:15;;;;;;;23.88;4.15;;;;;;;;;;5102536;28;20172;-77
2022/12/27 03:16:57;;;;;;;12.13;3.53;;;;;;;;;;5094579;28;20073;-77
2022/12/27 03:25:27;;;;;;;18.67;3.47;;;;;;;;;;5095788;28;20494;-77
2022/12/27 03:33:31;;;;;;;35.92;4.57;;;;;;;;;;5094498;28;20043;-77
2022/12/27 03:39:07;;;;;;;24.60;4.80;;;;;;;;;;5119155;28;20092;-77
2022/12/27 03:44:24;;;;;;;26.60;5.43;;;;;;;;;;5110465;28;20038;-79
2022/12/27 03:47:02;;;;;;;19.25;3.80;;;;;;;;;;5116355;28;20039;-74
2022/12/27 03:49:48;;;;;;;24.80;4.18;;;;;;;;;;5106767;28;20156;-76
2022/12/27 03:52:20;;;;;;;25.27;4.60;;;;;;;;;;5110004;28;20028;-77
2022/12/27 03:54:47;;;;;;;26.73;4.78;;;;;;;;;;5104638;28;20080;-75
2022/12/27 03:57:15;;;;;;;27.08;4.35;;;;;;;;;;5103444;28;20032;-76
2022/12/27 03:59:41;;;;;;;23.67;4.63;;;;;;;;;;5096193;28;20036;-79
2022/12/27 04:02:07;;;;;;;28.23;4.68;;;;;;;;;;5113346;28;20039;-78
2022/12/27 04:04:33;;;;;;;21.02;4.72;;;;;;;;;;5090239;28;20034;-78
2022/12/27 04:06:59;;;;;;;39.17;5.15;;;;;;;;;;5106775;28;20028;-78
2022/12/27 04:36:53;;;;;;;27.25;4.25;;;;;;;;;;5083154;28;20663;-78
2022/12/27 04:39:19;;;;;;;28.50;5.45;;;;;;;;;;5078037;28;20025;-79
2022/12/27 04:55:31;;;;;;;26.90;5.30;;;;;;;;;;5075142;28;20082;-79
2022/12/27 04:57:58;;;;;;;18.85;4.63;;;;;;;;;;5066171;28;20024;-77
2022/12/27 05:03:19;;;;;;;18.95;4.20;;;;;;;;;;5087995;28;20055;-76
2022/12/27 05:05:45;;;;;;;15.80;3.92;;;;;;;;;;5085254;28;20025;-77
2022/12/27 05:13:59;;;;;;;14.93;3.20;;;;;;;;;;5076076;28;20323;-78
2022/12/27 05:16:34;;;;;;;15.55;2.90;;;;;;;;;;5057625;28;20039;-78
2022/12/27 05:19:00;;;;;;;;;;;;;;;;;;5072470;28;20063;-77
2022/12/27 05:21:26;;;;;;;16.02;3.00;;;;;;;;;;5078038;28;20622;-78
2022/12/27 05:26:37;;;;;;;15.75;3.35;;;;;;;;;;5076432;28;20456;-79
2022/12/27 05:29:04;;;;;;;16.75;3.45;;;;;;;;;;5076130;28;20030;-78
2022/12/27 05:31:30;;;;;;;14.68;3.70;;;;;;;;;;5079426;28;20085;-79
2022/12/27 05:33:57;;;;;;;19.02;3.58;;;;;;;;;;5075828;28;20111;-78
2022/12/27 05:36:23;;;;;;;15.27;3.78;;;;;;;;;;5075585;28;20036;-78
2022/12/27 05:38:49;;;;;;;20.17;3.55;;;;;;;;;;5076899;28;20355;-78
2022/12/27 05:41:15;;;;;;;16.83;3.53;;;;;;;;;;5081945;28;20099;-77
2022/12/27 05:43:41;;;;;;;18.00;3.63;;;;;;;;;;5062264;28;20307;-79
2022/12/27 05:46:08;;;;;;;19.92;3.90;;;;;;;;;;5080128;28;20461;-79
2022/12/27 05:48:35;;;;;;;17.05;3.55;;;;;;;;;;5075631;28;20028;-80
2022/12/27 05:51:19;;;;;;;19.05;3.40;;;;;;;;;;5077574;28;20462;-79
2022/12/27 05:53:46;;;;;;;14.77;3.80;;;;;;;;;;5056905;28;20020;-78
2022/12/27 05:56:14;;;;;;;24.35;3.50;;;;;;;;;;5074876;28;20054;-77
2022/12/27 05:58:40;;;;;;;20.15;3.42;;;;;;;;;;5076540;28;20031;-79
2022/12/27 06:01:08;;;;;;;20.83;3.67;;;;;;;;;;5079519;28;20025;-79
2022/12/27 06:03:33;;;;;;;15.40;3.47;;;;;;;;;;5062557;28;20028;-79
2022/12/27 06:06:00;;;;;;;16.75;3.55;;;;;;;;;;5078842;28;20024;-78
2022/12/27 06:08:27;;;;;;;19.45;3.78;;;;;;;;;;5060829;28;20025;-79
2022/12/27 06:11:00;;;;;;;18.02;3.95;;;;;;;;;;5078585;28;20078;-79
2022/12/27 06:13:26;;;;;;;16.93;3.60;;;;;;;;;;5078479;28;20074;-78
2022/12/27 06:15:52;;;;;;;16.65;4.03;;;;;;;;;;5078490;28;20259;-78
2022/12/27 06:18:18;;;;;;;18.35;4.10;;;;;;;;;;5080198;28;20044;-78
2022/12/27 06:20:44;;;;;;;18.77;3.35;;;;;;;;;;5088143;28;20017;-78
2022/12/27 06:23:10;;;;;;;13.50;3.60;;;;;;;;;;5100544;28;20052;-83
2022/12/27 06:25:37;;;;;;;12.90;3.22;;;;;;;;;;5100257;28;20024;-82
2022/12/27 06:28:03;;;;;;;20.58;3.92;;;;;;;;;;5100645;28;20009;-84
2022/12/27 06:30:29;;;;;;;15.35;3.10;;;;;;;;;;5100500;28;20047;-81
2022/12/27 06:32:55;;;;;;;21.17;3.40;;;;;;;;;;5094168;28;20021;-80
2022/12/27 06:35:21;;;;;;;20.52;3.70;;;;;;;;;;5086399;28;20028;-78
2022/12/27 06:37:47;;;;;;;13.40;3.13;;;;;;;;;;5082946;28;20552;-81
2022/12/27 06:40:13;;;;;;;17.77;4.00;;;;;;;;;;5084574;28;20024;-81
2022/12/27 06:42:38;;;;;;;13.65;3.30;;;;;;;;;;5087433;28;20035;-80
2022/12/27 06:45:05;;;;;;;20.83;3.20;;;;;;;;;;5071239;28;20028;-81
2022/12/27 06:47:31;;;;;;;17.35;3.63;;;;;;;;;;5085962;28;20020;-80
2022/12/27 06:49:57;;;;;;;17.38;3.83;;;;;;;;;;5079083;28;20033;-80
2022/12/27 06:52:23;;;;;;;16.73;3.42;;;;;;;;;;5077573;28;20030;-80
2022/12/27 06:54:49;;;;;;;15.77;5.13;;;;;;;;;;5077119;28;20029;-79
2022/12/27 06:57:15;;;;;;;17.52;3.47;;;;;;;;;;5076012;28;20033;-79
2022/12/27 06:59:41;;;;;;;18.73;3.53;;;;;;;;;;5077469;28;20043;-80
2022/12/27 07:02:08;;;;;;;14.38;3.25;;;;;;;;;;5086490;28;20037;-78
2022/12/27 07:04:34;;;;;;;17.27;2.75;;;;;;;;;;5083113;28;20054;-79
2022/12/27 07:07:00;;;;;;;22.38;4.13;;;;;;;;;;5078278;28;20040;-79
2022/12/27 07:09:26;;;;;;;16.40;3.38;;;;;;;;;;5086100;28;20037;-77
2022/12/27 07:11:52;;;;;;;19.23;3.42;;;;;;;;;;5076797;28;20100;-77
2022/12/27 07:14:18;;;;;;;19.27;3.22;;;;;;;;;;5077710;28;20028;-79
2022/12/27 07:16:44;;;;;;;35.95;3.92;;;;;;;;;;5077695;28;20051;-80
2022/12/27 07:19:10;;;;;;;19.25;3.15;;;;;;;;;;5085976;28;20051;-79
2022/12/27 07:21:37;;;;;;;21.73;3.97;;;;;;;;;;5085102;28;20112;-79
2022/12/27 07:24:03;;;;;;;23.58;3.47;;;;;;;;;;5083777;28;20027;-78
2022/12/27 07:26:29;;;;;;;16.50;3.22;;;;;;;;;;5082715;28;20027;-79
2022/12/27 07:28:59;;;;;;;14.23;3.10;;;;;;;;;;5068150;28;20059;-80
2022/12/27 07:31:28;;;;;;;21.88;3.53;;;;;;;;;;5084539;28;20102;-78
2022/12/27 07:33:54;;;;;;;18.08;3.13;;;;;;;;;;5086687;28;20032;-79
2022/12/27 07:36:24;;;;;;;25.77;3.63;;;;;;;;;;5079662;28;20036;-77
2022/12/27 07:38:50;;;;;;;18.85;3.17;;;;;;;;;;5089962;28;20029;-78
2022/12/27 07:41:17;;;;;;;21.33;3.53;;;;;;;;;;5091145;28;20029;-77
2022/12/27 07:43:43;;;;;;;17.63;3.20;;;;;;;;;;5094735;28;20035;-78
2022/12/27 07:46:13;;;;;;;21.42;3.22;;;;;;;;;;5094020;28;20031;-78
2022/12/27 07:48:39;;;;;;;21.23;3.40;;;;;;;;;;5092756;28;20025;-78
2022/12/27 07:51:05;;;;;;;19.38;3.70;;;;;;;;;;5066250;28;20102;-79
2022/12/27 07:53:31;;;;;;;25.15;4.10;;;;;;;;;;5084621;28;20388;-78
2022/12/27 07:55:57;;;;;;;18.95;4.22;;;;;;;;;;5084216;28;20013;-78
2022/12/27 07:58:23;;;;;;;24.30;3.90;;;;;;;;;;5083020;28;20024;-78
2022/12/27 08:00:50;;;;;;;30.60;4.45;;;;;;;;;;5080821;28;20048;-79
2022/12/27 08:03:17;;;;;;;23.02;3.92;;;;;;;;;;5085684;28;20024;-79
2022/12/27 08:05:46;;;;;;;16.65;3.40;;;;;;;;;;5081533;28;20024;-78
2022/12/27 08:08:14;;;;;;;22.23;3.70;;;;;;;;;;5079499;28;20040;-79
2022/12/27 08:10:40;;;;;;;31.05;4.10;;;;;;;;;;5082611;28;20070;-79
2022/12/27 08:13:06;;;;;;;21.27;3.70;;;;;;;;;;5077487;28;20029;-79
2022/12/27 08:15:32;;;;;;;17.65;3.35;;;;;;;;;;5076543;28;20024;-78
2022/12/27 08:17:58;;;;;;;20.40;3.17;;;;;;;;;;5076406;28;20106;-82
2022/12/27 08:20:24;;;;;;;13.70;3.25;;;;;;;;;;5077947;28;20078;-79
2022/12/27 08:22:50;;;;;;;28.58;3.08;;;;;;;;;;5080149;28;20020;-78
2022/12/27 08:25:16;;;;;;;18.80;3.33;;;;;;;;;;5079286;28;20028;-77
2022/12/27 08:27:42;;;;;;;18.60;3.40;;;;;;;;;;5077049;28;20036;-78
2022/12/27 08:30:08;;;;;;;16.25;2.95;;;;;;;;;;5076168;28;20054;-79
2022/12/27 08:32:34;;;;;;;21.52;3.90;;;;;;;;;;5078506;28;20166;-79
2022/12/27 08:35:00;;;;;;;16.92;2.70;;;;;;;;;;5081534;28;20032;-79
2022/12/27 08:37:26;;;;;;;21.98;2.95;;;;;;;;;;5080782;28;20024;-79
2022/12/27 08:39:51;;;;;;;16.95;3.00;;;;;;;;;;5080767;28;20052;-79
2022/12/27 08:42:17;;;;;;;20.80;3.13;;;;;;;;;;5081144;28;20028;-79
2022/12/27 08:44:43;;;;;;;17.48;3.15;;;;;;;;;;5087136;28;20036;-77
2022/12/27 08:47:09;;;;;;;18.67;2.50;;;;;;;;;;5087922;28;20032;-78
2022/12/27 08:49:35;;;;;;;21.05;3.13;;;;;;;;;;5089820;28;20025;-79
2022/12/27 08:52:01;;;;;;;18.95;3.70;;;;;;;;;;5088873;28;20048;-78
2022/12/27 08:54:27;;;;;;;21.45;3.03;;;;;;;;;;5068052;28;20024;-78
2022/12/27 08:56:53;;;;;;;20.42;3.15;;;;;;;;;;5075862;28;20055;-78
2022/12/27 08:59:19;;;;;;;21.33;3.20;;;;;;;;;;5076699;28;20033;-78
2022/12/27 09:01:45;;;;;;;15.75;3.30;;;;;;;;;;5078279;28;20115;-79
2022/12/27 09:04:11;;;;;;;45.20;4.78;;;;;;;;;;5079518;28;20047;-79
2022/12/27 09:06:38;;;;;;;16.02;3.00;;;;;;;;;;5079885;28;20028;-78
2022/12/27 09:09:04;;;;;;;21.02;3.60;;;;;;;;;;5082481;28;20055;-78
2022/12/27 09:11:32;;;;;;;25.98;3.60;;;;;;;;;;5094306;28;20043;-80
2022/12/27 09:13:58;;;;;;;21.00;3.30;;;;;;;;;;5077653;28;20012;-77
2022/12/27 09:16:26;;;;;;;20.30;3.33;;;;;;;;;;5096283;28;20025;-78
2022/12/27 09:18:53;;;;;;;19.33;3.63;;;;;;;;;;5095798;28;20009;-79
2022/12/27 09:21:19;;;;;;;18.75;4.15;;;;;;;;;;5095197;28;20029;-79
2022/12/27 09:23:45;;;;;;;23.27;3.53;;;;;;;;;;5087567;28;20039;-80
2022/12/27 09:26:12;;;;;;;19.73;3.35;;;;;;;;;;5076465;28;20029;-79
2022/12/27 09:28:38;;;;;;;21.13;4.13;;;;;;;;;;5073740;28;20104;-77
2022/12/27 09:31:05;;;;;;;25.35;4.07;;;;;;;;;;5074000;28;20474;-78
2022/12/27 09:33:31;;;;;;;19.95;3.90;;;;;;;;;;5076593;28;20028;-77
2022/12/27 09:36:04;;;;;;;19.50;3.58;;;;;;;;;;5078668;28;20021;-79
2022/12/27 09:38:30;;;;;;;25.15;3.67;;;;;;;;;;5080138;28;20028;-78
2022/12/27 09:40:58;;;;;;;24.52;4.43;;;;;;;;;;5079116;28;20024;-78
2022/12/27 09:43:31;;;;;;;22.65;3.65;;;;;;;;;;5081356;28;20063;-76
2022/12/27 09:45:58;;;;;;;23.27;3.55;;;;;;;;;;5083325;28;20103;-78
2022/12/27 09:48:33;;;;;;;30.08;4.63;;;;;;;;;;5077699;28;20456;-77
2022/12/27 09:51:02;;;;;;;18.60;3.60;;;;;;;;;;5078371;28;20104;-78
2022/12/27 09:53:37;;;;;;;22.08;3.95;;;;;;;;;;5079783;28;20400;-78
2022/12/27 09:56:04;;;;;;;23.27;4.22;;;;;;;;;;5079475;28;20550;-79
2022/12/27 09:58:33;;;;;;;22.77;3.83;;;;;;;;;;5080739;28;20020;-79
2022/12/27 10:00:59;;;;;;;24.27;4.03;;;;;;;;;;5081870;28;20020;-79
2022/12/27 10:03:26;;;;;;;21.45;3.55;;;;;;;;;;5085664;28;20031;-79
2022/12/27 10:05:59;;;;;;;23.30;3.63;;;;;;;;;;5070747;28;20070;-81
2022/12/27 10:08:27;;;;;;;23.92;3.80;;;;;;;;;;5107287;22;20069;-76
2022/12/27 10:10:56;;;;;;;30.67;3.55;;;;;;;;;;5064508;28;20024;-76
2022/12/27 10:13:25;;;;;;;18.70;3.60;;;;;;;;;;5065354;28;20021;-77
2022/12/27 10:16:03;;;;;;;21.02;3.95;;;;;;;;;;5066831;28;20020;-78
2022/12/27 10:18:50;;;;;;;24.23;3.65;;;;;;;;;;5064659;28;20029;-77
2022/12/27 10:21:23;;;;;;;33.55;4.60;;;;;;;;;;5035898;28;20040;-77
2022/12/27 10:24:10;;;;;;;20.83;3.67;;;;;;;;;;5036703;28;20385;-77
2022/12/27 10:26:36;;;;;;;36.17;4.18;;;;;;;;;;5029468;28;20052;-77
2022/12/27 10:29:13;;;;;;;29.85;4.00;;;;;;;;;;5036368;28;20057;-77
2022/12/27 10:31:41;;;;;;;31.30;4.15;;;;;;;;;;5037399;28;20100;-77
2022/12/27 10:34:08;;;;;;;20.08;4.53;;;;;;;;;;5037946;28;20041;-77
2022/12/27 10:36:34;;;;;;;19.13;3.58;;;;;;;;;;5037806;28;20092;-76
2022/12/27 10:39:02;;;;;;;20.88;4.03;;;;;;;;;;5037097;28;20072;-76
2022/12/27 10:41:49;;;;;;;26.25;3.80;;;;;;;;;;5034983;28;20037;-76
2022/12/27 10:44:15;;;;;;;23.17;3.33;;;;;;;;;;5038789;28;20026;-78
2022/12/27 10:46:43;;;;;;;20.58;3.33;;;;;;;;;;5037736;28;20043;-77
2022/12/27 10:49:29;;;;;;;25.40;3.58;;;;;;;;;;5043695;28;20094;-81
2022/12/27 10:51:57;;;;;;;23.92;3.38;;;;;;;;;;5050736;28;20079;-81
2022/12/27 10:54:23;;;;;;;17.15;3.60;;;;;;;;;;5049560;28;20037;-78
2022/12/27 10:56:49;;;;;;;25.83;4.22;;;;;;;;;;5049478;28;20049;-80
2022/12/27 10:59:17;;;;;;;19.20;3.55;;;;;;;;;;5050144;28;20018;-79
2022/12/27 11:01:44;;;;;;;18.42;3.38;;;;;;;;;;5046659;28;20029;-78
2022/12/27 11:04:15;;;;;;;24.65;3.35;;;;;;;;;;5044908;28;20052;-77
2022/12/27 11:06:41;;;;;;;20.25;3.15;;;;;;;;;;5040872;28;20121;-78
2022/12/27 11:09:19;;;;;;;20.00;3.42;;;;;;;;;;5039627;28;20084;-78
2022/12/27 11:11:45;;;;;;;22.27;3.50;;;;;;;;;;5040924;28;20383;-77
2022/12/27 11:14:15;;;;;;;24.60;3.40;;;;;;;;;;5037032;28;20079;-77
2022/12/27 11:16:41;;;;;;;16.05;3.33;;;;;;;;;;5037561;28;20040;-78
2022/12/27 11:19:19;;;;;;;18.75;2.83;;;;;;;;;;5037601;28;20108;-77
2022/12/27 11:21:44;;;;;;;20.02;2.70;;;;;;;;;;5036013;28;20025;-77
2022/12/27 11:24:13;;;;;;;19.58;3.60;;;;;;;;;;5037078;28;20382;-76
2022/12/27 11:26:41;;;;;;;23.27;4.18;;;;;;;;;;5036317;28;20025;-77
2022/12/27 11:29:14;;;;;;;23.77;4.28;;;;;;;;;;5036691;28;20482;-77
2022/12/27 11:31:45;;;;;;;22.13;3.72;;;;;;;;;;5042899;28;20029;-77
2022/12/27 11:34:31;;;;;;;19.38;3.20;;;;;;;;;;5058798;28;20025;-77
2022/12/27 11:37:13;;;;;;;23.05;3.78;;;;;;;;;;5041484;28;20109;-77
2022/12/27 11:39:44;;;;;;;19.20;3.17;;;;;;;;;;5041578;28;20026;-77
2022/12/27 11:42:16;;;;;;;23.67;3.15;;;;;;;;;;5038889;28;20127;-78
2022/12/27 11:44:45;;;;;;;29.17;3.08;;;;;;;;;;5042582;28;20030;-78
2022/12/27 11:47:14;;;;;;;19.92;3.78;;;;;;;;;;5041458;28;20034;-78
2022/12/27 11:49:45;;;;;;;20.67;3.17;;;;;;;;;;5046365;28;20032;-77
2022/12/27 11:52:11;;;;;;;20.45;3.33;;;;;;;;;;5045230;28;20029;-78
2022/12/27 11:54:46;;;;;;;12.73;2.70;;;;;;;;;;5050658;28;20032;-78
2022/12/27 11:57:30;;;;;;;13.55;2.92;;;;;;;;;;5048537;28;20033;-77
2022/12/27 11:59:59;;;;;;;23.17;3.45;;;;;;;;;;5051260;28;20060;-76
2022/12/27 12:02:28;;;;;;;19.30;3.15;;;;;;;;;;5057164;28;20069;-77
2022/12/27 12:05:03;;;;;;;20.98;3.15;;;;;;;;;;5056513;28;20029;-76
2022/12/27 12:07:38;;;;;;;22.17;3.75;;;;;;;;;;5048637;28;20026;-77
2022/12/27 12:10:17;;;;;;;28.48;3.90;;;;;;;;;;5050275;28;20093;-77
2022/12/27 12:13:02;;;;;;;25.90;4.65;;;;;;;;;;5051286;28;20009;-77
2022/12/27 12:15:28;;;;;;;;;;;;;;;;;;5055602;28;20016;-78
2022/12/27 12:17:57;;;;;;;20.10;2.90;;;;;;;;;;5052790;28;19917;-77
2022/12/27 12:20:42;;;;;;;12.07;2.90;;;;;;;;;;5072820;28;20056;-78
2022/12/27 12:23:27;;;;;;;18.42;4.13;;;;;;;;;;5075954;28;20013;-77
2022/12/27 12:26:07;;;;;;;23.00;3.65;;;;;;;;;;5076036;28;20044;-78
2022/12/27 12:28:52;;;;;;;16.25;3.33;;;;;;;;;;5055223;28;20147;-77
2022/12/27 12:31:21;;;;;;;18.63;3.25;;;;;;;;;;5072402;28;20024;-77
2022/12/27 12:33:53;;;;;;;21.60;3.45;;;;;;;;;;5051420;28;20047;-78
2022/12/27 12:36:38;;;;;;;20.23;3.85;;;;;;;;;;5066359;28;20033;-78
2022/12/27 12:39:16;;;;;;;16.35;3.03;;;;;;;;;;5041853;28;20061;-78
2022/12/27 12:41:42;;;;;;;24.90;3.42;;;;;;;;;;5057603;28;20059;-78
2022/12/27 12:44:31;;;;;;;17.50;3.08;;;;;;;;;;5058597;28;20029;-78
2022/12/27 12:47:04;;;;;;;22.85;3.85;;;;;;;;;;5058481;28;20075;-78
2022/12/27 12:49:37;;;;;;;18.92;3.53;;;;;;;;;;5041961;28;20481;-79
2022/12/27 12:52:24;;;;;;;29.45;3.60;;;;;;;;;;5061458;28;20021;-79
2022/12/27 12:55:01;;;;;;;18.35;3.45;;;;;;;;;;5061367;28;20059;-79
2022/12/27 12:57:41;;;;;;;22.95;3.47;;;;;;;;;;5058934;28;20040;-79
2022/12/27 13:00:08;;;;;;;23.85;3.60;;;;;;;;;;5065140;28;20019;-78
2022/12/27 13:02:52;;;;;;;27.08;4.05;;;;;;;;;;5061740;28;20025;-79
2022/12/27 13:05:24;;;;;;;22.33;3.97;;;;;;;;;;5059642;28;20032;-76
2022/12/27 13:07:58;;;;;;;23.65;3.67;;;;;;;;;;5051863;28;20029;-77
2022/12/27 13:10:27;;;;;;;21.20;3.40;;;;;;;;;;5060220;28;20037;-78
2022/12/27 13:12:56;;;;;;;29.98;3.47;;;;;;;;;;5059282;28;20035;-77
2022/12/27 13:15:22;;;;;;;30.10;5.70;;;;;;;;;;5040600;28;20039;-77
2022/12/27 13:18:07;;;;;;;26.15;7.60;;;;;;;;;;5040298;28;20190;-73
2022/12/27 13:20:45;;;;;;;30.60;3.47;;;;;;;;;;5053107;28;20522;-72
2022/12/27 13:23:29;;;;;;;28.02;4.65;;;;;;;;;;5052970;28;20029;-74
2022/12/27 13:26:14;;;;;;;17.27;3.20;;;;;;;;;;5052796;28;20021;-73
2022/12/27 13:28:55;;;;;;;24.27;3.55;;;;;;;;;;5052452;28;20029;-73
2022/12/27 13:31:36;;;;;;;24.48;3.85;;;;;;;;;;5053342;28;20053;-75
2022/12/27 13:34:34;;;;;;;30.30;4.15;;;;;;;;;;5056173;28;20148;-74
2022/12/27 13:37:00;;;;;;;25.10;4.05;;;;;;;;;;5012943;28;20044;-73
2022/12/27 13:39:55;;;;;;;27.38;4.03;;;;;;;;;;5035352;28;20025;-73
2022/12/27 13:42:40;;;;;;;21.67;3.25;;;;;;;;;;5035586;28;20118;-74
2022/12/27 13:45:07;;;;;;;19.58;3.13;;;;;;;;;;5053720;28;20077;-75
2022/12/27 13:47:51;;;;;;;24.05;3.63;;;;;;;;;;5053668;28;20025;-75
2022/12/27 13:50:27;;;;;;;31.38;3.88;;;;;;;;;;5053778;28;20082;-75
2022/12/27 13:53:01;;;;;;;26.98;3.70;;;;;;;;;;5063996;28;20044;-77
2022/12/27 13:55:36;;;;;;;20.58;3.08;;;;;;;;;;5073398;28;20083;-78
2022/12/27 13:58:20;;;;;;;26.35;3.65;;;;;;;;;;5075046;28;20036;-77
2022/12/27 14:01:00;;;;;;;24.75;3.47;;;;;;;;;;5035956;28;20509;-78
2022/12/27 14:03:29;;;;;;;31.50;4.25;;;;;;;;;;5060386;28;20085;-78
2022/12/27 14:05:55;;;;;;;28.90;3.67;;;;;;;;;;5061252;28;20056;-78
2022/12/27 14:08:48;;;;;;;25.45;3.58;;;;;;;;;;5074959;28;20328;-77
2022/12/27 14:11:28;;;;;;;28.38;4.97;;;;;;;;;;5041064;28;20045;-77
2022/12/27 14:13:55;;;;;;;17.77;3.42;;;;;;;;;;5055689;28;20036;-76
2022/12/27 14:16:36;;;;;;;24.50;4.40;;;;;;;;;;5057928;28;20036;-79
2022/12/27 14:19:09;;;;;;;27.13;4.18;;;;;;;;;;5037846;28;20251;-78
2022/12/27 14:21:51;;;;;;;32.13;4.38;;;;;;;;;;5043683;28;20026;-78
2022/12/27 14:24:36;;;;;;;29.70;3.75;;;;;;;;;;5065016;28;20418;-78
2022/12/27 14:27:21;;;;;;;21.38;3.42;;;;;;;;;;5063789;28;20032;-79
2022/12/27 14:30:05;;;;;;;19.67;3.40;;;;;;;;;;5064145;28;20367;-78
2022/12/27 14:32:55;;;;;;;29.38;4.35;;;;;;;;;;5044974;28;20033;-80
2022/12/27 14:35:40;;;;;;;19.98;3.20;;;;;;;;;;5036831;28;20075;-78
2022/12/27 14:38:25;;;;;;;19.33;3.47;;;;;;;;;;5047636;28;20481;-79
2022/12/27 14:40:51;;;;;;;;;;;;;;;;;;5064166;28;20072;-78
2022/12/27 14:43:23;;;;;;;20.42;3.55;;;;;;;;;;5044594;28;19934;-79
2022/12/27 14:45:58;;;;;;;27.77;4.05;;;;;;;;;;5060413;28;20509;-78
2022/12/27 14:48:39;;;;;;;20.98;4.07;;;;;;;;;;5042398;28;20017;-77
2022/12/27 14:51:05;;;;;;;28.48;4.53;;;;;;;;;;5060690;28;20029;-77
2022/12/27 14:53:50;;;;;;;24.55;4.40;;;;;;;;;;5060719;28;20078;-78
2022/12/27 14:56:21;;;;;;;27.88;4.35;;;;;;;;;;5060274;28;20033;-77
2022/12/27 14:58:49;;;;;;;31.35;4.82;;;;;;;;;;5060519;28;20017;-77
2022/12/27 15:01:15;;;;;;;19.70;4.53;;;;;;;;;;5061451;28;20091;-78
2022/12/27 15:04:00;;;;;;;28.60;4.50;;;;;;;;;;5061846;28;20028;-78
2022/12/27 15:06:26;;;;;;;33.42;5.40;;;;;;;;;;5061094;28;20094;-77
2022/12/27 15:08:57;;;;;;;23.15;3.92;;;;;;;;;;5043046;28;20032;-78
2022/12/27 15:11:42;;;;;;;29.55;4.95;;;;;;;;;;5060051;28;20024;-77
2022/12/27 15:14:08;;;;;;;;;;;;;;;;;;5044130;28;20033;-79
2022/12/27 15:16:39;;;;;;;34.80;4.65;;;;;;;;;;5042182;28;19935;-78
2022/12/27 15:19:14;;;;;;;24.80;4.50;;;;;;;;;;5063701;28;20037;-79
2022/12/27 15:21:59;;;;;;;33.42;4.82;;;;;;;;;;5054186;28;20021;-79
2022/12/27 15:24:35;;;;;;;30.15;5.57;;;;;;;;;;5064699;28;20405;-78
2022/12/27 15:27:13;;;;;;;36.65;6.15;;;;;;;;;;5050787;28;20128;-78
2022/12/27 15:29:39;;;;;;;26.30;5.72;;;;;;;;;;5036429;28;20032;-79
2022/12/27 15:32:20;;;;;;;29.17;5.43;;;;;;;;;;5046811;28;20037;-77
2022/12/27 15:34:59;;;;;;;27.48;5.18;;;;;;;;;;5039919;28;20029;-78
2022/12/27 15:37:44;;;;;;;22.55;4.55;;;;;;;;;;5065508;28;20508;-79
2022/12/27 15:40:29;;;;;;;29.58;5.07;;;;;;;;;;5060139;28;20035;-77
2022/12/27 15:42:58;;;;;;;28.98;4.35;;;;;;;;;;5064692;28;20029;-78
2022/12/27 15:45:27;;;;;;;67.40;27.38;;;;;;;;;;5054505;28;20040;-77
2022/12/27 15:48:12;;;;;;;29.58;5.93;;;;;;;;;;5060754;28;20017;-75
2022/12/27 15:50:47;;;;;;;29.05;6.72;;;;;;;;;;5062830;28;20021;-76
2022/12/27 15:53:20;;;;;;;25.95;6.05;;;;;;;;;;5056917;28;20045;-79
2022/12/27 15:56:04;;;;;;;34.10;6.38;;;;;;;;;;5064792;28;20029;-78
2022/12/27 15:58:30;;;;;;;33.17;6.30;;;;;;;;;;5066782;28;20104;-77
2022/12/27 16:01:26;;;;;;;32.55;6.53;;;;;;;;;;5050536;28;20267;-78
2022/12/27 16:03:52;;;;;;;;;;;;;;;;;;5036697;28;20033;-77
2022/12/27 16:06:33;;;;;;;31.90;5.70;;;;;;;;;;5073038;28;19900;-77
2022/12/27 16:09:28;;;;;;;34.67;6.80;;;;;;;;;;5102260;22;20103;-79
2022/12/27 16:11:54;;;;;;;;;;;;;;;;;;5086053;28;20032;-80
2022/12/27 16:14:26;;;;;;;44.20;6.95;;;;;;;;;;5079803;28;19910;-79
2022/12/27 16:16:53;;;;;;;27.08;5.93;;;;;;;;;;5100609;28;20038;-78
2022/12/27 16:19:32;;;;;;;23.40;5.93;;;;;;;;;;5106651;28;20032;-78
2022/12/27 16:21:58;;;;;;;27.20;6.30;;;;;;;;;;5099463;28;20028;-79
2022/12/27 16:24:26;;;;;;;37.78;7.15;;;;;;;;;;5097890;28;20024;-79
2022/12/27 16:27:00;;;;;;;27.30;6.80;;;;;;;;;;5108991;28;20062;-78
2022/12/27 16:29:28;;;;;;;36.13;6.78;;;;;;;;;;5105276;28;20030;-80
2022/12/27 16:32:12;;;;;;;25.67;7.10;;;;;;;;;;5103189;28;20534;-78